createdAt,value
2019-02-18T00:00:12.141Z,8.65
2019-02-18T00:02:41.341Z,9.25
2019-02-18T00:05:10.956Z,10.70
2019-02-18T00:07:40.285Z,13.20
2019-02-18T00:10:09.612Z,9.55
2019-02-18T00:12:39.040Z,10.25
2019-02-18T00:15:08.401Z,10.53
2019-02-18T00:17:37.661Z,12.10
2019-02-18T00:20:07.014Z,11.15
2019-02-18T00:22:36.311Z,11.73
2019-02-18T00:25:05.760Z,11.95
2019-02-18T00:27:35.104Z,11.88
2019-02-18T00:30:05.211Z,10.80
2019-02-18T00:32:34.518Z,11.25
2019-02-18T00:35:03.775Z,13.10
2019-02-18T00:37:33.223Z,12.63
2019-02-18T00:40:02.519Z,11.33
2019-02-18T00:42:31.776Z,12.55
2019-02-18T00:45:01.145Z,11.88
2019-02-18T00:47:30.528Z,10.35
2019-02-18T00:49:59.783Z,12.63
2019-02-18T00:52:29.258Z,13.00
2019-02-18T00:54:58.518Z,12.37
2019-02-18T00:57:27.830Z,12.80
2019-02-18T00:59:57.507Z,11.45
2019-02-18T01:02:26.750Z,12.85
2019-02-18T01:04:56.008Z,11.40
2019-02-18T01:07:34.424Z,12.53
2019-02-18T01:09:56.677Z,11.45
2019-02-18T01:12:26.023Z,12.55
2019-02-18T01:14:55.334Z,12.50
2019-02-18T01:17:24.642Z,12.50
2019-02-18T01:19:54.097Z,11.75
2019-02-18T01:22:23.839Z,10.78
2019-02-18T01:24:53.275Z,11.60
2019-02-18T01:27:22.719Z,11.12
2019-02-18T01:29:51.993Z,11.73
2019-02-18T01:32:21.327Z,12.95
2019-02-18T01:34:50.644Z,11.33
2019-02-18T01:37:19.953Z,13.20
2019-02-18T01:39:49.265Z,12.10
2019-02-18T01:42:18.520Z,10.25
2019-02-18T01:44:47.868Z,9.73
2019-02-18T01:47:17.199Z,11.45
2019-02-18T01:49:46.459Z,10.25
2019-02-18T01:52:15.756Z,10.82
2019-02-18T01:54:45.067Z,10.32
2019-02-18T01:57:14.318Z,10.70
2019-02-18T01:59:43.597Z,9.40
2019-02-18T02:02:12.844Z,10.03
2019-02-18T02:04:42.179Z,11.33
2019-02-18T02:07:11.545Z,10.78
2019-02-18T02:09:40.803Z,11.22
2019-02-18T02:12:10.147Z,11.38
2019-02-18T02:14:39.423Z,8.95
2019-02-18T02:17:08.674Z,12.55
2019-02-18T02:19:38.153Z,9.90
2019-02-18T02:22:07.833Z,9.00
2019-02-18T02:24:37.156Z,10.85
2019-02-18T02:27:06.409Z,10.03
2019-02-18T02:29:36.054Z,10.65
2019-02-18T02:32:05.381Z,10.48
2019-02-18T02:34:34.634Z,12.20
2019-02-18T02:37:03.931Z,11.22
2019-02-18T02:39:33.282Z,11.38
2019-02-18T02:42:02.606Z,10.25
2019-02-18T02:44:31.889Z,11.55
2019-02-18T02:47:01.439Z,11.83
2019-02-18T02:49:30.787Z,16.80
2019-02-18T02:52:00.158Z,14.85
2019-02-18T02:54:29.424Z,13.98
2019-02-18T02:56:58.833Z,11.97
2019-02-18T02:59:28.111Z,12.45
2019-02-18T03:01:57.369Z,10.78
2019-02-18T03:04:26.630Z,13.00
2019-02-18T03:06:56.058Z,13.32
2019-02-18T03:09:25.395Z,12.68
2019-02-18T03:11:54.639Z,12.03
2019-02-18T03:14:24.044Z,14.38
2019-02-18T03:16:53.286Z,13.75
2019-02-18T03:19:22.469Z,14.00
2019-02-18T03:21:51.764Z,12.37
2019-02-18T03:24:21.017Z,14.73
2019-02-18T03:26:50.266Z,14.38
2019-02-18T03:30:03.584Z,15.40
2019-02-18T03:32:37.014Z,15.65
2019-02-18T03:35:06.492Z,15.83
2019-02-18T03:37:36.029Z,13.15
2019-02-18T03:40:05.305Z,13.40
2019-02-18T03:42:34.592Z,13.48
2019-02-18T03:45:03.999Z,14.15
2019-02-18T03:47:33.254Z,16.97
2019-02-18T03:50:02.575Z,16.15
2019-02-18T03:52:31.946Z,15.38
2019-02-18T03:55:01.206Z,12.33
2019-02-18T03:57:30.630Z,12.45
2019-02-18T04:00:00.167Z,18.48
2019-02-18T04:02:29.737Z,16.67
2019-02-18T04:04:58.895Z,14.60
2019-02-18T04:07:28.102Z,13.95
2019-02-18T04:09:57.428Z,14.18
2019-02-18T04:12:26.734Z,17.37
2019-02-18T04:14:56.481Z,16.12
2019-02-18T04:17:25.804Z,14.47
2019-02-18T04:19:55.055Z,14.68
2019-02-18T04:22:24.346Z,15.18
2019-02-18T04:24:53.534Z,14.30
2019-02-18T04:27:22.797Z,15.83
2019-02-18T04:29:52.101Z,16.75
2019-02-18T04:32:21.275Z,15.10
2019-02-18T04:34:50.605Z,14.25
2019-02-18T04:37:19.960Z,16.45
2019-02-18T04:39:49.161Z,15.95
2019-02-18T04:42:18.611Z,17.12
2019-02-18T04:44:47.906Z,16.77
2019-02-18T04:47:17.236Z,13.72
2019-02-18T04:49:46.488Z,15.25
2019-02-18T04:52:15.810Z,16.25
2019-02-18T04:54:45.065Z,13.78
2019-02-18T04:57:14.378Z,12.07
2019-02-18T04:59:43.646Z,12.90
2019-02-18T05:02:12.819Z,13.45
2019-02-18T05:04:42.161Z,13.65
2019-02-18T05:07:11.676Z,14.47
2019-02-18T05:09:40.892Z,12.13
2019-02-18T05:12:10.219Z,14.47
2019-02-18T05:14:39.572Z,12.55
2019-02-18T05:17:08.815Z,12.68
2019-02-18T05:19:37.989Z,12.90
2019-02-18T05:22:07.299Z,14.18
2019-02-18T05:24:36.634Z,12.37
2019-02-18T05:27:05.885Z,12.03
2019-02-18T05:29:35.213Z,12.58
2019-02-18T05:32:04.495Z,11.48
2019-02-18T05:34:33.680Z,12.75
2019-02-18T05:37:02.899Z,12.13
2019-02-18T05:39:32.146Z,10.20
2019-02-18T05:42:01.426Z,13.45
2019-02-18T05:44:30.778Z,10.55
2019-02-18T05:47:00.014Z,11.43
2019-02-18T05:49:31.827Z,10.55
2019-02-18T05:52:01.107Z,11.60
2019-02-18T05:54:30.469Z,11.33
2019-02-18T05:56:59.770Z,11.85
2019-02-18T05:59:29.048Z,12.03
2019-02-18T06:01:58.384Z,11.12
2019-02-18T06:04:27.653Z,10.60
2019-02-18T06:06:57.014Z,11.65
2019-02-18T06:09:29.979Z,11.33
2019-02-18T06:11:57.148Z,11.20
2019-02-18T06:14:26.717Z,11.12
2019-02-18T06:16:55.981Z,12.23
2019-02-18T06:19:25.235Z,11.83
2019-02-18T06:21:54.569Z,10.58
2019-02-18T06:24:24.119Z,10.20
2019-02-18T06:26:53.314Z,11.70
2019-02-18T06:29:22.885Z,11.18
2019-02-18T06:31:52.143Z,13.62
2019-02-18T06:34:21.466Z,11.43
2019-02-18T06:36:50.829Z,9.28
2019-02-18T06:39:20.100Z,11.53
2019-02-18T06:41:49.364Z,11.95
2019-02-18T06:44:21.451Z,13.62
2019-02-18T06:47:02.181Z,11.80
2019-02-18T06:49:32.919Z,11.03
2019-02-18T06:52:02.270Z,12.10
2019-02-18T06:54:31.510Z,11.65
2019-02-18T06:57:35.111Z,11.95
2019-02-18T07:00:21.936Z,11.75
2019-02-18T07:02:59.038Z,12.43
2019-02-18T07:05:44.683Z,11.12
2019-02-18T07:08:32.541Z,11.33
2019-02-18T07:11:23.759Z,11.50
2019-02-18T07:13:53.034Z,11.20
2019-02-18T07:16:22.341Z,11.68
2019-02-18T07:18:51.638Z,10.80
2019-02-18T07:21:20.851Z,10.30
2019-02-18T07:23:50.021Z,12.37
2019-02-18T07:26:19.344Z,11.88
2019-02-18T07:28:48.620Z,10.85
2019-02-18T07:31:17.868Z,11.10
2019-02-18T07:33:47.188Z,11.45
2019-02-18T07:36:16.537Z,12.10
2019-02-18T07:38:45.804Z,10.60
2019-02-18T07:41:15.261Z,9.88
2019-02-18T07:43:44.535Z,10.78
2019-02-18T07:46:13.867Z,10.35
2019-02-18T07:48:43.211Z,10.50
2019-02-18T07:51:12.493Z,16.97
2019-02-18T07:53:41.804Z,18.15
2019-02-18T07:56:11.052Z,16.35
2019-02-18T07:58:40.608Z,18.20
2019-02-18T08:01:09.802Z,15.85
2019-02-18T08:03:39.126Z,16.30
2019-02-18T08:06:08.427Z,16.90
2019-02-18T08:08:37.658Z,17.90
2019-02-18T08:11:06.891Z,16.55
2019-02-18T08:13:36.243Z,17.40
2019-02-18T08:16:05.475Z,15.53
2019-02-18T08:18:34.716Z,13.83
2019-02-18T08:21:03.948Z,15.00
2019-02-18T08:23:33.296Z,14.25
2019-02-18T08:26:02.613Z,16.10
2019-02-18T08:28:31.989Z,14.60
2019-02-18T08:31:01.913Z,15.20
2019-02-18T08:33:31.784Z,14.70
2019-02-18T08:36:01.701Z,12.73
2019-02-18T08:41:17.866Z,15.55
2019-02-18T08:43:47.192Z,17.00
2019-02-18T08:46:16.423Z,14.50
2019-02-18T08:48:45.645Z,12.23
2019-02-18T08:51:14.809Z,15.68
2019-02-18T08:53:44.074Z,11.80
2019-02-18T08:56:13.345Z,10.38
2019-02-18T08:58:42.785Z,8.55
2019-02-18T09:01:12.093Z,9.60
2019-02-18T09:03:41.308Z,8.58
2019-02-18T09:06:10.592Z,8.73
2019-02-18T09:08:39.783Z,7.92
2019-02-18T09:11:09.073Z,8.70
2019-02-18T09:13:38.371Z,8.08
2019-02-18T09:16:07.610Z,8.15
2019-02-18T09:18:36.886Z,7.70
2019-02-18T09:21:06.198Z,8.95
2019-02-18T09:23:54.486Z,8.48
2019-02-18T09:26:23.736Z,9.05
2019-02-18T09:28:52.918Z,7.17
2019-02-18T09:31:27.937Z,8.28
2019-02-18T09:33:57.249Z,9.25
2019-02-18T09:36:26.488Z,8.70
2019-02-18T09:38:55.757Z,7.97
2019-02-18T09:41:25.111Z,8.95
2019-02-18T09:43:55.024Z,8.73
2019-02-18T09:46:24.392Z,10.63
2019-02-18T09:48:53.717Z,9.55
2019-02-18T09:51:22.965Z,10.23
2019-02-18T09:53:52.249Z,8.83
2019-02-18T09:56:21.583Z,11.48
2019-02-18T09:58:50.837Z,9.05
2019-02-18T10:01:20.201Z,8.73
2019-02-18T10:03:49.602Z,10.08
2019-02-18T10:06:18.773Z,8.98
2019-02-18T10:08:48.082Z,10.35
2019-02-18T10:11:17.347Z,10.88
2019-02-18T10:13:46.679Z,9.98
2019-02-18T10:16:16.061Z,10.65
2019-02-18T10:18:45.269Z,11.43
2019-02-18T10:21:14.604Z,9.78
2019-02-18T10:23:43.989Z,9.95
2019-02-18T10:26:13.482Z,10.38
2019-02-18T10:28:42.817Z,9.80
2019-02-18T10:31:12.118Z,10.03
2019-02-18T10:33:41.691Z,11.60
2019-02-18T10:36:10.976Z,12.65
2019-02-18T10:38:40.398Z,9.88
2019-02-18T10:41:09.681Z,10.53
2019-02-18T10:43:39.097Z,9.30
2019-02-18T10:46:08.403Z,9.60
2019-02-18T10:48:37.731Z,8.93
2019-02-18T10:51:07.072Z,10.33
2019-02-18T10:53:36.461Z,10.03
2019-02-18T10:56:05.832Z,9.88
2019-02-18T10:58:35.093Z,11.00
2019-02-18T11:01:05.180Z,12.57
2019-02-18T11:03:34.439Z,9.73
2019-02-18T11:06:03.788Z,11.50
2019-02-18T11:08:33.146Z,11.40
2019-02-18T11:11:02.506Z,11.33
2019-02-18T11:13:31.846Z,10.20
2019-02-18T11:16:01.223Z,10.50
2019-02-18T11:18:30.558Z,10.03
2019-02-18T11:20:59.881Z,10.40
2019-02-18T11:23:29.677Z,9.97
2019-02-18T11:25:59.018Z,10.57
2019-02-18T11:28:28.355Z,11.63
2019-02-18T11:30:57.727Z,10.37
2019-02-18T11:33:26.992Z,11.17
2019-02-18T11:35:56.347Z,10.53
2019-02-18T11:38:25.725Z,10.00
2019-02-18T11:40:55.001Z,9.20
2019-02-18T11:43:24.251Z,10.40
2019-02-18T11:45:53.598Z,10.70
2019-02-18T11:48:22.855Z,10.40
2019-02-18T11:50:52.568Z,10.57
2019-02-18T11:53:21.941Z,10.63
2019-02-18T11:55:51.195Z,8.73
2019-02-18T11:58:20.474Z,9.77
2019-02-18T12:00:49.765Z,10.77
2019-02-18T12:03:19.018Z,9.87
2019-02-18T12:05:48.751Z,10.03
2019-02-18T12:08:18.478Z,9.27
2019-02-18T12:10:47.827Z,10.23
2019-02-18T12:13:17.228Z,10.13
2019-02-18T12:15:46.578Z,11.00
2019-02-18T12:18:15.818Z,10.00
2019-02-18T12:20:45.374Z,9.70
2019-02-18T12:23:14.669Z,9.60
2019-02-18T12:25:43.927Z,9.87
2019-02-18T12:28:13.180Z,10.20
2019-02-18T12:30:42.472Z,9.27
2019-02-18T12:33:11.713Z,9.40
2019-02-18T12:35:40.975Z,11.33
2019-02-18T12:38:10.187Z,9.03
2019-02-18T12:40:39.517Z,9.70
2019-02-18T12:43:08.773Z,10.57
2019-02-18T12:45:38.084Z,11.20
2019-02-18T12:48:07.329Z,10.53
2019-02-18T12:50:36.982Z,9.30
2019-02-18T12:53:06.269Z,9.33
2019-02-18T12:55:35.564Z,9.97
2019-02-18T12:58:04.859Z,9.87
2019-02-18T13:00:34.951Z,9.77
2019-02-18T13:03:04.596Z,8.50
2019-02-18T13:05:33.836Z,9.97
2019-02-18T13:08:04.063Z,8.93
2019-02-18T13:10:34.898Z,10.17
2019-02-18T13:13:04.198Z,8.53
2019-02-18T13:15:33.597Z,9.20
2019-02-18T13:20:32.388Z,9.40
2019-02-18T13:23:01.760Z,9.47
2019-02-18T13:25:31.535Z,9.33
2019-02-18T13:28:08.325Z,8.50
2019-02-18T13:30:31.732Z,7.80
2019-02-18T13:33:00.970Z,7.73
2019-02-18T13:35:30.221Z,8.23
2019-02-18T13:37:59.496Z,8.10
2019-02-18T13:40:29.221Z,8.80
2019-02-18T13:42:58.476Z,9.03
2019-02-18T13:45:27.828Z,10.37
2019-02-18T13:47:57.085Z,9.33
2019-02-18T13:50:26.331Z,9.00
2019-02-18T13:52:55.727Z,8.53
2019-02-18T13:55:25.275Z,8.50
2019-02-18T13:57:54.531Z,7.57
2019-02-18T14:00:23.897Z,8.60
2019-02-18T14:02:53.220Z,8.60
2019-02-18T14:05:22.619Z,9.33
2019-02-18T14:07:51.983Z,7.70
2019-02-18T14:10:22.118Z,7.30
2019-02-18T14:12:51.419Z,7.13
2019-02-18T14:15:21.463Z,8.27
2019-02-18T14:17:50.790Z,8.03
2019-02-18T14:20:20.111Z,8.33
2019-02-18T14:22:49.392Z,8.47
2019-02-18T14:25:18.932Z,7.10
2019-02-18T14:27:48.181Z,7.23
2019-02-18T14:30:17.764Z,8.63
2019-02-18T14:32:47.088Z,9.43
2019-02-18T14:35:17.281Z,7.07
2019-02-18T14:37:47.172Z,8.97
2019-02-18T14:40:17.052Z,7.63
2019-02-18T14:42:46.278Z,8.20
2019-02-18T14:45:17.060Z,7.00
2019-02-18T14:47:46.304Z,8.73
2019-02-18T14:50:18.001Z,8.10
2019-02-18T14:52:47.586Z,7.00
2019-02-18T14:55:16.910Z,8.33
2019-02-18T14:57:46.239Z,6.13
2019-02-18T15:00:21.064Z,7.17
2019-02-18T15:02:51.885Z,8.33
2019-02-18T15:05:21.432Z,8.13
2019-02-18T15:07:50.880Z,8.30
2019-02-18T15:10:20.219Z,8.20
2019-02-18T15:12:49.496Z,8.40
2019-02-18T15:15:18.862Z,7.53
2019-02-18T15:17:48.154Z,7.37
2019-02-18T15:20:17.398Z,7.53
2019-02-18T15:22:46.670Z,9.17
2019-02-18T15:25:16.022Z,8.80
2019-02-18T15:27:45.358Z,8.50
2019-02-18T15:30:15.833Z,7.90
2019-02-18T15:32:45.158Z,7.87
2019-02-18T15:35:15.686Z,8.40
2019-02-18T15:37:45.052Z,8.13
2019-02-18T15:40:16.097Z,8.20
2019-02-18T15:42:45.414Z,7.70
2019-02-18T15:45:15.101Z,9.53
2019-02-18T15:47:44.343Z,7.80
2019-02-18T15:50:14.779Z,8.73
2019-02-18T15:52:44.172Z,8.27
2019-02-18T15:55:13.964Z,8.73
2019-02-18T15:57:43.313Z,8.83
2019-02-18T16:00:16.214Z,8.97
2019-02-18T16:02:45.599Z,8.67
2019-02-18T16:05:15.199Z,8.90
2019-02-18T16:07:44.594Z,9.30
2019-02-18T16:10:13.944Z,8.50
2019-02-18T16:12:50.502Z,8.40
2019-02-18T16:15:14.297Z,8.43
2019-02-18T16:17:44.146Z,8.13
2019-02-18T16:20:13.550Z,8.30
2019-02-18T16:22:43.255Z,7.50
2019-02-18T16:25:15.177Z,7.60
2019-02-18T16:27:44.519Z,7.50
2019-02-18T16:30:14.759Z,7.67
2019-02-18T16:32:44.400Z,7.63
2019-02-18T16:35:13.935Z,6.00
2019-02-18T16:37:43.791Z,7.37
2019-02-18T16:40:14.903Z,7.10
2019-02-18T16:42:44.242Z,6.20
2019-02-18T16:45:14.276Z,6.93
2019-02-18T16:47:43.616Z,6.30
2019-02-18T16:50:13.859Z,5.93
2019-02-18T16:52:43.140Z,6.47
2019-02-18T16:55:12.764Z,5.93
2019-02-18T16:57:42.116Z,6.30
2019-02-18T17:00:20.333Z,6.33
2019-02-18T17:02:50.939Z,5.93
2019-02-18T17:05:20.555Z,6.23
2019-02-18T17:07:49.925Z,7.27
2019-02-18T17:10:19.186Z,7.33
2019-02-18T17:12:48.975Z,7.50
2019-02-18T17:15:18.549Z,9.70
2019-02-18T17:17:47.889Z,9.20
2019-02-18T17:20:17.221Z,11.30
2019-02-18T17:22:46.503Z,10.80
2019-02-18T17:25:15.844Z,11.00
2019-02-18T17:27:45.779Z,11.10
2019-02-18T17:30:15.771Z,12.10
2019-02-18T17:32:45.289Z,9.27
2019-02-18T17:35:14.744Z,11.93
2019-02-18T17:37:44.121Z,10.57
2019-02-18T17:40:13.944Z,11.20
2019-02-18T17:42:43.689Z,11.97
2019-02-18T17:45:13.646Z,10.80
2019-02-18T17:47:43.077Z,10.80
2019-02-18T17:50:13.805Z,10.73
2019-02-18T17:52:43.181Z,9.80
2019-02-18T17:55:13.425Z,10.67
2019-02-18T17:57:43.080Z,9.90
2019-02-18T18:00:15.432Z,8.87
2019-02-18T18:02:44.702Z,7.70
2019-02-18T18:05:15.152Z,8.90
2019-02-18T18:07:44.863Z,8.80
2019-02-18T18:10:14.338Z,8.23
2019-02-18T18:12:43.825Z,8.60
2019-02-18T18:15:13.169Z,9.47
2019-02-18T18:17:43.260Z,8.40
2019-02-18T18:20:12.814Z,9.57
2019-02-18T18:22:42.176Z,9.90
2019-02-18T18:25:12.014Z,11.17
2019-02-18T18:27:41.458Z,9.83
2019-02-18T18:30:12.387Z,9.40
2019-02-18T18:32:41.732Z,9.63
2019-02-18T18:35:11.753Z,10.60
2019-02-18T18:37:41.131Z,9.33
2019-02-18T18:40:12.560Z,9.40
2019-02-18T18:42:41.820Z,10.43
2019-02-18T18:45:12.504Z,10.83
2019-02-18T18:47:41.850Z,11.35
2019-02-18T18:50:13.954Z,8.65
2019-02-18T18:52:43.576Z,9.28
2019-02-18T18:55:12.866Z,9.60
2019-02-18T18:57:42.127Z,9.68
2019-02-18T19:00:15.464Z,9.25
2019-02-18T19:02:44.942Z,9.90
2019-02-18T19:05:14.634Z,8.13
2019-02-18T19:07:44.000Z,9.53
2019-02-18T19:10:13.395Z,10.60
2019-02-18T19:12:42.736Z,9.30
2019-02-18T19:15:13.018Z,11.75
2019-02-18T19:17:42.303Z,10.20
2019-02-18T19:20:12.079Z,8.40
2019-02-18T19:22:41.414Z,10.28
2019-02-18T19:25:10.931Z,9.33
2019-02-18T19:27:40.267Z,10.50
2019-02-18T19:30:12.585Z,9.85
2019-02-18T19:32:42.170Z,9.30
2019-02-18T19:35:11.617Z,9.70
2019-02-18T19:37:41.223Z,9.48
2019-02-18T19:40:11.508Z,10.50
2019-02-18T19:42:40.775Z,9.85
2019-02-18T19:45:12.833Z,8.88
2019-02-18T19:47:42.569Z,9.35
2019-02-18T19:50:11.915Z,10.88
2019-02-18T19:52:41.210Z,9.05
2019-02-18T19:55:10.486Z,8.50
2019-02-18T19:57:39.800Z,7.80
2019-02-18T20:00:10.782Z,8.18
2019-02-18T20:02:40.092Z,9.43
2019-02-18T20:05:09.799Z,9.28
2019-02-18T20:07:39.167Z,8.33
2019-02-18T20:10:08.861Z,8.95
2019-02-18T20:12:38.219Z,9.30
2019-02-18T20:15:08.187Z,8.63
2019-02-18T20:17:37.595Z,7.20
2019-02-18T20:20:07.855Z,8.58
2019-02-18T20:22:37.253Z,9.50
2019-02-18T20:25:06.859Z,8.43
2019-02-18T20:27:36.134Z,8.63
2019-02-18T20:30:06.446Z,8.93
2019-02-18T20:32:35.816Z,8.18
2019-02-18T20:35:05.608Z,8.35
2019-02-18T20:37:35.131Z,8.20
2019-02-18T20:40:04.480Z,8.53
2019-02-18T20:42:33.873Z,10.45
2019-02-18T20:45:03.431Z,8.83
2019-02-18T20:47:32.698Z,9.35
2019-02-18T20:50:02.048Z,10.03
2019-02-18T20:52:31.403Z,9.25
2019-02-18T20:55:00.966Z,8.25
2019-02-18T20:57:30.313Z,8.88
2019-02-18T20:59:59.807Z,8.50
2019-02-18T21:02:29.294Z,8.93
2019-02-18T21:05:00.415Z,7.75
2019-02-18T21:07:29.804Z,9.30
2019-02-18T21:09:59.084Z,10.10
2019-02-18T21:12:28.951Z,8.93
2019-02-18T21:14:58.299Z,9.30
2019-02-18T21:17:27.559Z,9.13
2019-02-18T21:19:56.927Z,7.17
2019-02-18T21:22:26.200Z,8.98
2019-02-18T21:24:55.540Z,9.80
2019-02-18T21:27:25.418Z,9.33
2019-02-18T21:29:54.720Z,9.78
2019-02-18T21:32:24.063Z,11.50
2019-02-18T21:34:53.307Z,7.85
2019-02-18T21:37:22.655Z,10.18
2019-02-18T21:39:52.034Z,9.08
2019-02-18T21:42:22.042Z,9.80
2019-02-18T21:44:51.345Z,10.15
2019-02-18T21:47:20.640Z,9.43
2019-02-18T21:49:50.434Z,9.83
2019-02-18T21:52:19.756Z,8.38
2019-02-18T21:54:49.108Z,9.25
2019-02-18T21:57:18.374Z,8.93
2019-02-18T21:59:47.673Z,8.78
2019-02-18T22:02:16.920Z,9.75
2019-02-18T22:04:46.155Z,9.03
2019-02-18T22:07:15.500Z,8.40
2019-02-18T22:09:44.872Z,8.35
2019-02-18T22:12:14.604Z,9.40
2019-02-18T22:14:43.889Z,10.35
2019-02-18T22:17:13.237Z,12.93
2019-02-18T22:19:42.503Z,16.75
2019-02-18T22:22:11.890Z,11.20
2019-02-18T22:24:41.205Z,10.18
2019-02-18T22:27:10.757Z,8.03
2019-02-18T22:29:40.045Z,10.13
2019-02-18T22:32:09.341Z,8.65
2019-02-18T22:34:38.669Z,9.05
2019-02-18T22:37:08.141Z,10.20
2019-02-18T22:39:37.484Z,9.10
2019-02-18T22:42:06.821Z,8.73
2019-02-18T22:44:41.751Z,9.38
2019-02-18T22:47:07.179Z,8.88
2019-02-18T22:49:36.425Z,9.93
2019-02-18T22:52:05.792Z,9.28
2019-02-18T22:54:35.043Z,9.50
2019-02-18T22:57:04.307Z,9.60
2019-02-18T22:59:33.637Z,9.30
2019-02-18T23:02:02.893Z,9.55
2019-02-18T23:04:32.208Z,7.08
2019-02-18T23:07:01.784Z,8.58
2019-02-18T23:09:31.085Z,9.03
2019-02-18T23:12:00.413Z,8.83
2019-02-18T23:14:30.187Z,9.90
2019-02-18T23:16:59.426Z,8.90
2019-02-18T23:19:28.656Z,9.65
2019-02-18T23:21:57.994Z,9.25
2019-02-18T23:24:27.522Z,9.38
2019-02-18T23:26:56.702Z,9.43
2019-02-18T23:29:26.878Z,8.60
2019-02-18T23:31:56.127Z,10.13
2019-02-18T23:34:25.362Z,9.18
2019-02-18T23:36:54.630Z,10.30
2019-02-18T23:39:23.815Z,8.25
2019-02-18T23:41:53.137Z,9.65
2019-02-18T23:44:22.420Z,8.90
2019-02-18T23:46:51.617Z,10.15
2019-02-18T23:49:21.457Z,10.58
2019-02-18T23:51:50.746Z,9.90
2019-02-18T23:54:19.978Z,9.53
2019-02-18T23:56:49.131Z,9.68
2019-02-18T23:59:18.431Z,11.10
